Terminal Aerodrome Forecast
Issued by NWS

Home | Current Version | Previous Version | Text Only | Print | Product List | Glossary Off
Versions: 1 2 3 4 5 6 7 8 9 10 11 12 13 14

000
FTUS45 KGGW 112300
TAFSDY
TAF
KSDY 112320Z 1200/1224 35009KT P6SM SCT080
     FM120600 VRB06KT P6SM BKN080
     FM121800 29010KT P6SM FEW250
      AMD LTD TO CLD VIS AND WIND=

USA.gov is the U.S. government's official web portal to all federal, state and local government web resources and services.